Delta Virtual Airport Information Service

Surabaya Juanda International Airport

ICAO: WARR Country: Indonesia
Latitude: -7.37983 Longitude: 112.787
Latest Arrival : DAC8038 (WIII-WARR) Latest Departure : DAC8038 (WARR-YBRM)


WX CaptureLIVE
Data provided by noaa.gov | Fetched at 21:19:41

METAR :

TAF : WARR 242300Z 2500/2600 11010KT 9999 FEW020 TEMPO 2507/2510 FEW020CB BECMG 2514/2516 25005KT 7000 TEMPO 2520/2600 4000 HZ


Runway Data for WARR
Data provided by openaviationdata.com

Runway ID Mag Var Hdg Length Elevation Surface ILS Freq ILS Id ILS Slope
10 1 98° 9844 ft 9 ft Asphalt 110.1 ISBY 3
28 1 278° 9844 ft 9 ft Asphalt -- -- --

Surabaya Juanda International Airport, Indonesia
Use only for reference purposes



Not for navigational purposes.